Flight Track Log - Related Links

Times and Time Zones

All times are in EDT time to prevent confusion due to time zone crossing. See the SWA1880 flight status page for this flight to view local times or setup timezone preferences in your user account.

Time Position Orientation Groundspeed Altitude Reporting Facility
EDT Latitude Longitude Course Direction KTS MPH feet Rate Location/Type
Mon 02:55:55 PM 27.9833 -82.5333 360° North 153 176 800  Level Tampa TRACON
Mon 02:57:01 PM 28.0500 -82.5333 339° North 215 247 3,500 3,146 Climbing Tampa TRACON
Mon 02:59:00 PM 28.1850 -82.5936 334° Northwest 282 325 10,500 3,251 Climbing Jacksonville Center
Mon 03:00:00 PM 28.2686 -82.6406 334° Northwest 290 334 13,200 3,100 Climbing Jacksonville Center
Mon 03:01:00 PM 28.3583 -82.6897 331° Northwest 332 382 16,700 3,300 Climbing Jacksonville Center
Mon 03:02:00 PM 28.4483 -82.7461 335° Northwest 353 406 19,800 2,800 Climbing Jacksonville Center
Mon 03:03:00 PM 28.5464 -82.7981 344° North 370 426 22,300 2,450 Climbing Jacksonville Center
Mon 03:04:00 PM 28.6550 -82.8333 350° North 389 448 24,700 1,850 Climbing Jacksonville Center
Mon 03:05:00 PM 28.7697 -82.8569 349° North 402 463 26,000 900 Climbing Jacksonville Center
Mon 03:06:00 PM 28.8844 -82.8831 349° North 411 473 26,500 1,150 Climbing Jacksonville Center
Mon 03:07:00 PM 29.0056 -82.9092 348° North 421 484 28,300 1,700 Climbing Jacksonville Center
Mon 03:08:00 PM 29.1308 -82.9400 349° North 433 498 29,900 850 Climbing Jacksonville Center
Mon 03:09:00 PM 29.2581 -82.9686 349° North 452 520 30,000 800 Climbing Jacksonville Center
Mon 03:10:00 PM 29.3833 -82.9975 348° North 457 526 31,500 1,700 Climbing Jacksonville Center
Mon 03:11:00 PM 29.5086 -83.0286 345° North 457 526 33,400 2,100 Climbing Jacksonville Center
Mon 03:12:00 PM 29.6297 -83.0647 338° Northwest 455 524 35,700 2,050 Climbing Jacksonville Center
Mon 03:13:00 PM 29.7422 -83.1175 338° Northwest 440 506 37,500 1,150 Climbing Jacksonville Center
Mon 03:14:00 PM 29.8508 -83.1681 338° Northwest 426 490 38,000 250 Climbing Jacksonville Center
Mon 03:15:00 PM 29.9633 -83.2211 338° Northwest 416 479 38,000  Level Jacksonville Center
Mon 03:16:00 PM 30.0633 -83.2669 338° Northwest 421 484 38,000  Level Jacksonville Center
Mon 03:17:00 PM 30.1739 -83.3178 338° Northwest 421 484 38,000  Level Jacksonville Center
Mon 03:18:00 PM 30.2844 -83.3689 337° Northwest 421 484 38,000  Level Jacksonville Center
Mon 03:19:00 PM 30.3950 -83.4225 338° Northwest 421 484 38,000  Level Jacksonville Center
Mon 03:20:00 PM 30.5053 -83.4736 337° Northwest 421 484 38,000  Level Jacksonville Center
Mon 03:21:00 PM 30.6158 -83.5275 339° North 421 484 38,000  Level Jacksonville Center
Mon 03:22:00 PM 30.7261 -83.5764 338° Northwest 426 490 38,000  Level Jacksonville Center
Mon 03:23:00 PM 30.8386 -83.6281 336° Northwest 426 490 38,000  Level Jacksonville Center
Mon 03:24:00 PM 30.9489 -83.6847 338° Northwest 432 497 38,000  Level Jacksonville Center
Mon 03:25:00 PM 31.0592 -83.7367 338° Northwest 432 497 38,000  Level Jacksonville Center
Mon 03:26:00 PM 31.1736 -83.7908 337° Northwest 432 497 38,000  Level Jacksonville Center
Mon 03:27:55 PM 31.4042 -83.9028 337° Northwest 444 511 38,000  Level Atlanta Center
Mon 03:28:55 PM 31.5169 -83.9586 347° North 438 504 38,000  Level Atlanta Center
Mon 03:29:55 PM 31.6256 -83.9878 350° North 438 504 38,000  Level Atlanta Center
Mon 03:30:55 PM 31.7508 -84.0144 350° North 438 504 38,000  Level Atlanta Center
Mon 03:31:55 PM 31.8739 -84.0389 349° North 448 516 38,000  Level Atlanta Center
Mon 03:32:55 PM 31.9969 -84.0658 349° North 448 516 38,000  Level Atlanta Center
Mon 03:33:55 PM 32.1203 -84.0953 350° North 448 516 38,000  Level Atlanta Center
Mon 03:34:55 PM 32.2392 -84.1200 348° North 448 516 38,000  Level Atlanta Center
Mon 03:35:55 PM 32.3603 -84.1494 350° North 448 516 38,000  Level Atlanta Center
Mon 03:36:55 PM 32.4833 -84.1742 348° North 448 516 38,000  Level Atlanta Center
Mon 03:37:55 PM 32.6044 -84.2042 349° North 448 516 38,000  Level Atlanta Center
Mon 03:38:55 PM 32.7253 -84.2314 350° North 448 516 38,000  Level Atlanta Center
Mon 03:39:55 PM 32.8422 -84.2564 349° North 443 510 38,000  Level Atlanta Center
Mon 03:40:55 PM 32.9633 -84.2839 348° North 443 510 38,000  Level Atlanta Center
Mon 03:41:55 PM 33.0925 -84.3164 350° North 437 503 38,000  Level Atlanta Center
Mon 03:42:55 PM 33.2114 -84.3417 349° North 432 497 38,000  Level Atlanta Center
Mon 03:43:55 PM 33.3325 -84.3694 349° North 432 497 38,000 600 Level Atlanta Center
Mon 03:44:55 PM 33.4514 -84.3972 350° North 432 497 39,200 1,000 Climbing Atlanta Center
Mon 03:45:55 PM 33.5725 -84.4228 347° North 432 497 40,000 400 Climbing Atlanta Center
Mon 03:46:55 PM 33.6789 -84.4533 347° North 432 497 40,000  Level Atlanta Center
Mon 03:47:55 PM 33.8017 -84.4864 346° North 432 497 40,000  Level Atlanta Center
Mon 03:48:55 PM 33.9311 -84.5244 332° Northwest 443 510 40,000  Level Atlanta Center
Mon 03:49:55 PM 34.0331 -84.5903 334° Northwest 443 510 40,000  Level Atlanta Center
Mon 03:50:55 PM 34.1642 -84.6664 333° Northwest 456 525 40,000 -450 Level Atlanta Center
Mon 03:51:55 PM 34.2722 -84.7325 334° Northwest 456 525 39,100 -950 Descending Atlanta Center
Mon 03:52:55 PM 34.3825 -84.7964 333° Northwest 446 513 38,100 -1,000 Descending Atlanta Center
Mon 03:53:55 PM 34.4886 -84.8628 333° Northwest 435 501 37,100 -950 Descending Atlanta Center
Mon 03:54:55 PM 34.5986 -84.9294 304° West 435 501 36,200 -850 Descending Atlanta Center
Mon 03:55:55 PM 34.6522 -85.0261 294° West 418 481 35,400 -600 Descending Atlanta Center
Mon 03:56:55 PM 34.7053 -85.1683 298° West 415 478 35,000 -250 Descending Atlanta Center
Mon 03:57:55 PM 34.7625 -85.3006 305° West 428 493 34,900 -1,600 Descending Atlanta Center
Mon 03:58:55 PM 34.8322 -85.4206 320° Northwest 434 499 31,800 -2,450 Descending Atlanta Center
Mon 03:59:55 PM 34.9292 -85.5183 329° Northwest 439 505 30,000 -2,638 Descending Atlanta Center
Mon 04:03:37 PM 35.3222 -85.8094 328° Northwest 425 489 19,400 -2,809 Descending Memphis Center
Mon 04:04:37 PM 35.4211 -85.8858 329° Northwest 425 489 16,800 -2,550 Descending Memphis Center
Mon 04:05:37 PM 35.5111 -85.9522 327° Northwest 410 472 14,300 -2,600 Descending Memphis Center
Mon 04:06:37 PM 35.5925 -86.0169 327° Northwest 373 429 11,600 -1,650 Descending Memphis Center
Mon 04:07:37 PM 35.6678 -86.0769 313° West 344 396 11,000 -300 Descending Memphis Center
Mon 04:08:37 PM 35.7222 -86.1481 303° West 300 345 11,000 -600 Level Memphis Center
Mon 04:09:37 PM 35.7667 -86.2328 304° West 293 337 9,800 -1,350 Descending Memphis Center
Mon 04:10:37 PM 35.8089 -86.3100 304° West 282 325 8,300 -1,450 Descending Memphis Center
Mon 04:11:37 PM 35.8511 -86.3875 305° West 282 325 6,900 -1,450 Descending Memphis Center
Mon 04:12:37 PM 35.8931 -86.4622 303° West 272 313 5,400 -1,500 Descending Memphis Center
Mon 04:13:37 PM 35.9331 -86.5397 304° West 272 313 3,900 -1,250 Descending Memphis Center
Mon 04:14:37 PM 35.9728 -86.6122 302° West 272 313 2,900 -650 Descending Memphis Center
Mon 04:15:37 PM 36.0036 -86.6725 335° Northwest 253 291 2,600 -400 Descending Memphis Center
Mon 04:16:37 PM 36.0442 -86.6964 18° North 163 188 2,100 -650 Descending Memphis Center
Mon 04:17:37 PM 36.0811 -86.6819 16° North 143 165 1,300 -750 Descending Memphis Center
Mon 04:18:37 PM 36.1225 -86.6672 16° North 143 165 600 -700 Descending Memphis Center

Login

Don't have an account? Register now (free) for customized features, flight alerts, and more!